createdAt,value
2024-01-07T00:00:03.109Z,0
2024-01-07T00:15:02.480Z,0
2024-01-07T00:30:03.164Z,0
2024-01-07T00:45:02.402Z,0
2024-01-07T01:00:02.977Z,0
2024-01-07T01:15:02.244Z,0
2024-01-07T01:30:02.718Z,0
2024-01-07T01:45:03.235Z,0
2024-01-07T02:00:02.586Z,0
2024-01-07T02:15:03.127Z,0
2024-01-07T02:30:02.473Z,0
2024-01-07T02:45:03.160Z,0
2024-01-07T03:00:02.377Z,0
2024-01-07T03:15:02.810Z,0
2024-01-07T03:30:02.286Z,0
2024-01-07T03:45:02.673Z,0
2024-01-07T04:00:03.139Z,0
2024-01-07T04:15:02.553Z,0
2024-01-07T04:30:03.162Z,0
2024-01-07T04:45:02.440Z,0
2024-01-07T05:00:02.876Z,0
2024-01-07T05:15:02.347Z,0
2024-01-07T05:30:02.760Z,0
2024-01-07T05:45:03.171Z,0
2024-01-07T06:00:02.608Z,0
2024-01-07T06:15:03.157Z,0
2024-01-07T06:30:02.491Z,0
2024-01-07T06:45:03.157Z,0
2024-01-07T07:00:02.376Z,0
2024-01-07T07:15:02.854Z,0
2024-01-07T07:30:02.292Z,0
2024-01-07T07:45:02.702Z,0
2024-01-07T08:00:04.837Z,1
2024-01-07T08:15:02.604Z,7
2024-01-07T08:30:03.272Z,19
2024-01-07T08:45:02.467Z,22
2024-01-07T09:00:02.960Z,19
2024-01-07T09:15:02.332Z,45
2024-01-07T09:30:02.862Z,45
2024-01-07T09:45:02.227Z,49
2024-01-07T10:00:02.674Z,59
2024-01-07T10:15:03.221Z,74
2024-01-07T10:30:02.529Z,77
2024-01-07T10:45:03.212Z,89
2024-01-07T11:00:02.403Z,90
2024-01-07T11:15:02.841Z,58
2024-01-07T11:30:02.299Z,79
2024-01-07T11:45:02.760Z,83
2024-01-07T12:00:03.244Z,79
2024-01-07T12:15:02.626Z,73
2024-01-07T12:30:03.239Z,83
2024-01-07T12:45:02.507Z,92
2024-01-07T13:00:02.927Z,86
2024-01-07T13:15:02.380Z,68
2024-01-07T13:30:02.788Z,32
2024-01-07T13:45:03.252Z,77
2024-01-07T14:00:02.725Z,60
2024-01-07T14:15:03.283Z,56
2024-01-07T14:30:02.512Z,37
2024-01-07T14:45:02.977Z,21
2024-01-07T15:00:02.485Z,11
2024-01-07T15:15:02.829Z,3
2024-01-07T15:30:02.280Z,0
2024-01-07T15:45:02.719Z,0
2024-01-07T16:00:03.262Z,0
2024-01-07T16:15:02.609Z,0
2024-01-07T16:30:03.264Z,0
2024-01-07T16:45:02.478Z,0
2024-01-07T17:00:02.916Z,0
2024-01-07T17:15:02.423Z,0
2024-01-07T17:30:02.790Z,0
2024-01-07T17:45:03.295Z,0
2024-01-07T18:00:02.682Z,0
2024-01-07T18:15:03.311Z,0
2024-01-07T18:30:02.578Z,0
2024-01-07T18:45:03.067Z,0
2024-01-07T19:00:02.441Z,0
2024-01-07T19:15:02.925Z,0
2024-01-07T19:30:02.316Z,0
2024-01-07T19:45:02.771Z,0
2024-01-07T20:00:03.359Z,0
2024-01-07T20:15:02.688Z,0
2024-01-07T20:30:03.322Z,0
2024-01-07T20:45:02.553Z,0
2024-01-07T21:00:02.951Z,0
2024-01-07T21:15:02.363Z,0
2024-01-07T21:30:02.799Z,0
2024-01-07T21:45:02.336Z,0
2024-01-07T22:00:02.719Z,0
2024-01-07T22:15:03.310Z,0
2024-01-07T22:30:02.549Z,0
2024-01-07T22:45:03.015Z,0
2024-01-07T23:00:02.644Z,0
2024-01-07T23:15:02.854Z,0
2024-01-07T23:30:02.433Z,0
2024-01-07T23:45:02.746Z,0
